Time;durP1;ratioP1;P1;durP2;ratioP2;P2;SDS_P1;SDS_P2;PMS_P1;PMS_P2;Temp;Humidity;BMP_temperature;BMP_pressure;BME280_temperature;BME280_humidity;BME280_pressure;Samples;Min_cycle;Max_cycle;Signal;HPM_P1;HPM_P2
2022/04/19 00:00:38;;;;;;;2.20;2.10;;;18.70;43.20;;;;;;5035460;28;20439;-58
2022/04/19 00:03:06;;;;;;;1.90;1.80;;;18.70;43.10;;;;;;5038737;28;20815;-58
2022/04/19 00:05:32;;;;;;;2.40;1.87;;;18.70;43.10;;;;;;5037240;28;20296;-58
2022/04/19 00:07:59;;;;;;;1.83;1.73;;;18.70;43.20;;;;;;5041517;28;20447;-58
2022/04/19 00:10:28;;;;;;;1.93;1.83;;;18.70;43.20;;;;;;5039580;28;20457;-58
2022/04/19 00:12:54;;;;;;;2.27;2.10;;;18.70;43.10;;;;;;5038579;28;20540;-58
2022/04/19 00:15:21;;;;;;;2.07;1.97;;;18.70;43.10;;;;;;5041780;28;20551;-58
2022/04/19 00:17:48;;;;;;;2.10;2.00;;;18.70;43.10;;;;;;5042249;28;20571;-58
2022/04/19 00:20:13;;;;;;;1.80;1.70;;;18.70;43.10;;;;;;5039276;28;20463;-58
2022/04/19 00:22:39;;;;;;;1.90;1.80;;;18.70;43.10;;;;;;5043021;28;20418;-58
2022/04/19 00:25:06;;;;;;;2.10;2.00;;;18.70;43.10;;;;;;5036226;28;20232;-58
2022/04/19 00:27:33;;;;;;;4.70;1.80;;;18.70;43.00;;;;;;5041911;28;20667;-58
2022/04/19 00:29:59;;;;;;;1.93;1.83;;;18.70;43.10;;;;;;5043780;28;20472;-58
2022/04/19 00:32:25;;;;;;;2.07;1.97;;;18.70;43.10;;;;;;5041285;28;20433;-58
2022/04/19 00:34:51;;;;;;;2.10;2.00;;;18.70;43.10;;;;;;5035510;28;20688;-58
2022/04/19 00:37:20;;;;;;;2.03;1.93;;;18.70;43.00;;;;;;5040548;28;20438;-58
2022/04/19 00:39:46;;;;;;;2.10;2.00;;;18.70;43.10;;;;;;5042723;28;20923;-58
2022/04/19 00:42:11;;;;;;;2.07;1.97;;;18.70;43.00;;;;;;5032387;28;20461;-58
2022/04/19 00:44:39;;;;;;;2.40;2.30;;;18.70;43.10;;;;;;5040743;28;20330;-58
2022/04/19 00:47:08;;;;;;;2.00;1.90;;;18.70;43.10;;;;;;5043047;28;20249;-58
2022/04/19 00:49:37;;;;;;;2.00;1.90;;;18.70;43.10;;;;;;5040706;28;23220;-58
2022/04/19 00:52:04;;;;;;;2.10;2.00;;;18.70;43.10;;;;;;5041472;28;20443;-58
2022/04/19 00:54:30;;;;;;;1.70;1.60;;;18.70;43.00;;;;;;5040765;28;20548;-58
2022/04/19 00:56:56;;;;;;;1.77;1.67;;;18.70;43.00;;;;;;5042296;28;20505;-58
2022/04/19 00:59:22;;;;;;;2.43;2.23;;;18.70;43.10;;;;;;5041745;28;20451;-58
2022/04/19 01:01:50;;;;;;;2.00;1.90;;;18.70;43.00;;;;;;5043229;28;20238;-58
2022/04/19 01:04:16;;;;;;;2.00;1.90;;;18.70;43.10;;;;;;5042381;28;20789;-58
2022/04/19 01:06:42;;;;;;;1.70;1.60;;;18.70;43.10;;;;;;5044755;28;20425;-58
2022/04/19 01:09:08;;;;;;;2.20;2.10;;;18.70;43.10;;;;;;5042845;28;20245;-58
2022/04/19 01:14:19;;;;;;;2.40;2.30;;;18.70;43.00;;;;;;5039992;28;20261;-58
2022/04/19 01:16:45;;;;;;;1.93;1.83;;;18.70;43.00;;;;;;5042015;28;20513;-59
2022/04/19 01:19:16;;;;;;;2.00;1.90;;;18.70;43.10;;;;;;5039750;28;20451;-58
2022/04/19 01:21:54;;;;;;;2.03;1.93;;;18.70;43.10;;;;;;5046840;28;20584;-58
2022/04/19 01:24:21;;;;;;;2.10;2.00;;;18.70;43.10;;;;;;5043713;28;20455;-58
2022/04/19 01:26:47;;;;;;;2.27;2.07;;;18.70;43.10;;;;;;5042896;28;20434;-58
2022/04/19 01:29:13;;;;;;;2.57;1.90;;;18.70;43.10;;;;;;5042788;28;20482;-58
2022/04/19 01:31:41;;;;;;;2.20;2.10;;;18.70;43.00;;;;;;5044665;28;20934;-58
2022/04/19 01:34:07;;;;;;;1.80;1.70;;;18.70;43.10;;;;;;5038419;28;20501;-58
2022/04/19 01:36:37;;;;;;;2.23;2.13;;;18.70;43.10;;;;;;5045082;28;20961;-58
2022/04/19 01:39:04;;;;;;;1.90;1.80;;;18.70;43.10;;;;;;5042515;28;20438;-58
2022/04/19 01:41:30;;;;;;;2.30;2.20;;;18.70;43.00;;;;;;5039311;28;20955;-58
2022/04/19 01:43:55;;;;;;;1.93;1.83;;;18.70;43.10;;;;;;5028946;28;20441;-58
2022/04/19 01:46:23;;;;;;;2.20;2.10;;;18.70;43.00;;;;;;5044911;28;20223;-58
2022/04/19 01:48:50;;;;;;;2.20;2.10;;;18.70;43.00;;;;;;5040651;28;20234;-58
2022/04/19 01:51:16;;;;;;;2.30;2.20;;;18.70;43.00;;;;;;5041524;28;20887;-59
2022/04/19 01:53:42;;;;;;;2.67;2.57;;;18.60;42.90;;;;;;5043887;28;20488;-58
2022/04/19 01:56:08;;;;;;;2.00;1.90;;;18.70;43.10;;;;;;5038997;28;20423;-58
2022/04/19 01:58:33;;;;;;;1.97;1.87;;;18.70;43.00;;;;;;5040395;28;20785;-58
2022/04/19 02:00:59;;;;;;;2.17;1.97;;;18.70;43.00;;;;;;5043879;28;20261;-58
2022/04/19 02:03:25;;;;;;;2.00;1.90;;;18.70;43.00;;;;;;5037967;28;20628;-58
2022/04/19 02:05:50;;;;;;;2.27;2.10;;;18.70;43.00;;;;;;5041827;28;20222;-58
2022/04/19 02:08:16;;;;;;;2.00;1.90;;;18.70;43.00;;;;;;5041618;28;20237;-58
2022/04/19 02:10:41;;;;;;;2.13;2.03;;;18.70;43.00;;;;;;5041736;28;20280;-58
2022/04/19 02:13:07;;;;;;;2.13;2.03;;;18.70;43.00;;;;;;5041211;28;20638;-59
2022/04/19 02:15:32;;;;;;;2.30;2.10;;;18.70;43.10;;;;;;5038852;28;20227;-59
2022/04/19 02:17:58;;;;;;;2.23;2.13;;;18.70;43.00;;;;;;5040458;28;20309;-59
2022/04/19 02:20:23;;;;;;;2.30;2.20;;;18.70;43.00;;;;;;5043345;28;20249;-58
2022/04/19 02:22:49;;;;;;;2.20;2.10;;;18.70;42.90;;;;;;5046176;28;20226;-59
2022/04/19 02:25:16;;;;;;;2.20;2.10;;;18.70;43.00;;;;;;5042890;28;20621;-59
2022/04/19 02:27:42;;;;;;;2.20;2.10;;;18.70;42.90;;;;;;5042228;28;20241;-58
2022/04/19 02:30:13;;;;;;;2.10;2.00;;;18.70;43.70;;;;;;5044168;28;20422;-58
2022/04/19 02:32:46;;;;;;;2.30;2.20;;;18.70;42.90;;;;;;5046269;28;20513;-58
2022/04/19 02:35:15;;;;;;;2.03;1.93;;;18.70;43.00;;;;;;5043754;28;20422;-58
2022/04/19 02:38:07;;;;;;;2.37;2.23;;;18.70;42.90;;;;;;5026530;28;20431;-58
2022/04/19 02:40:33;;;;;;;2.63;2.53;;;18.70;42.90;;;;;;5037655;28;20462;-58
2022/04/19 02:42:58;;;;;;;1.93;1.83;;;18.70;43.00;;;;;;5040167;28;20418;-58
2022/04/19 02:45:24;;;;;;;1.90;1.80;;;18.70;42.90;;;;;;5040763;28;20218;-58
2022/04/19 02:48:04;;;;;;;2.30;2.20;;;18.70;42.90;;;;;;5038771;28;20227;-58
2022/04/19 02:50:31;;;;;;;2.40;2.20;;;18.70;42.90;;;;;;5042872;28;20249;-58
2022/04/19 02:52:56;;;;;;;2.20;2.10;;;18.70;42.90;;;;;;5044593;28;20451;-58
2022/04/19 02:55:22;;;;;;;2.10;2.00;;;18.70;43.00;;;;;;5036934;28;20423;-58
2022/04/19 02:57:47;;;;;;;2.10;2.00;;;18.70;43.00;;;;;;5043442;28;20378;-58
2022/04/19 03:00:14;;;;;;;2.23;2.13;;;18.70;42.90;;;;;;5042514;28;20218;-58
2022/04/19 03:02:39;;;;;;;2.00;1.90;;;18.70;42.90;;;;;;5042114;28;20684;-58
2022/04/19 03:05:05;;;;;;;2.20;2.10;;;18.60;42.90;;;;;;5044188;28;20454;-58
2022/04/19 03:07:31;;;;;;;2.07;1.97;;;18.70;43.00;;;;;;5042543;28;20247;-58
2022/04/19 03:09:56;;;;;;;2.40;2.10;;;18.60;42.90;;;;;;5042791;28;20215;-58
2022/04/19 03:12:22;;;;;;;2.00;1.90;;;18.70;43.00;;;;;;5034304;28;20231;-57
2022/04/19 03:14:47;;;;;;;2.40;2.30;;;18.70;42.90;;;;;;5040904;28;20218;-58
2022/04/19 03:17:13;;;;;;;2.30;2.10;;;18.70;43.00;;;;;;5039585;28;20246;-59
2022/04/19 03:19:38;;;;;;;2.20;2.10;;;18.60;42.80;;;;;;5040920;28;20276;-59
2022/04/19 03:22:04;;;;;;;1.80;1.70;;;18.70;43.00;;;;;;5041454;28;23392;-59
2022/04/19 03:29:59;;;;;;;2.20;2.10;;;18.60;42.80;;;;;;5041630;28;20466;-59
2022/04/19 03:32:24;;;;;;;2.20;2.10;;;18.60;42.80;;;;;;5034598;28;20427;-58
2022/04/19 03:34:50;;;;;;;2.37;2.27;;;18.60;42.80;;;;;;5043130;28;20430;-58
2022/04/19 03:37:16;;;;;;;1.87;1.77;;;18.60;42.80;;;;;;5041475;28;20271;-59
2022/04/19 03:39:42;;;;;;;3.03;2.83;;;18.60;42.90;;;;;;5042230;28;20460;-58
2022/04/19 03:42:08;;;;;;;1.87;1.77;;;18.60;42.80;;;;;;5040203;28;20238;-58
2022/04/19 03:44:34;;;;;;;2.20;2.10;;;18.60;42.80;;;;;;5039587;28;20226;-58
2022/04/19 03:47:09;;;;;;;2.20;2.10;;;18.60;42.70;;;;;;5040683;28;20429;-58
2022/04/19 03:49:39;;;;;;;2.00;1.90;;;18.60;42.80;;;;;;5039029;28;21383;-58
2022/04/19 03:52:06;;;;;;;2.20;2.10;;;18.70;42.90;;;;;;5039707;28;20438;-58
2022/04/19 03:54:34;;;;;;;2.40;2.30;;;18.60;42.80;;;;;;5035577;28;20517;-58
2022/04/19 03:57:07;;;;;;;2.03;1.93;;;18.70;42.90;;;;;;5040834;28;20928;-58
2022/04/19 03:59:33;;;;;;;2.20;2.10;;;18.60;42.80;;;;;;5040228;28;20460;-58
2022/04/19 04:01:59;;;;;;;2.00;1.90;;;18.60;42.70;;;;;;5039648;28;20507;-58
2022/04/19 04:04:32;;;;;;;2.03;1.93;;;18.60;42.80;;;;;;5036704;28;20916;-58
2022/04/19 04:06:58;;;;;;;2.20;2.10;;;18.70;42.80;;;;;;5042476;28;20283;-58
2022/04/19 04:09:25;;;;;;;2.07;1.97;;;18.70;42.80;;;;;;5035161;28;20442;-58
2022/04/19 04:11:51;;;;;;;1.90;1.80;;;18.70;42.70;;;;;;5036366;28;20434;-58
2022/04/19 04:14:16;;;;;;;2.27;2.17;;;18.70;42.60;;;;;;5043141;28;20457;-58
2022/04/19 04:16:42;;;;;;;2.57;2.47;;;18.80;42.60;;;;;;5040996;28;20450;-58
2022/04/19 04:19:07;;;;;;;2.10;2.00;;;18.80;42.50;;;;;;5035513;28;20231;-57
2022/04/19 04:21:33;;;;;;;2.00;1.90;;;18.80;42.40;;;;;;5040386;28;20384;-57
2022/04/19 04:23:58;;;;;;;2.10;2.00;;;18.90;42.40;;;;;;5039500;28;20275;-58
2022/04/19 04:26:24;;;;;;;2.30;2.20;;;18.90;42.30;;;;;;5043913;28;20223;-57
2022/04/19 04:28:49;;;;;;;2.20;2.10;;;18.90;42.30;;;;;;5041168;28;20222;-57
2022/04/19 04:31:15;;;;;;;2.43;2.33;;;18.90;42.30;;;;;;5046192;28;20225;-58
2022/04/19 04:33:40;;;;;;;1.93;1.83;;;18.90;42.30;;;;;;5040810;28;20310;-58
2022/04/19 04:36:06;;;;;;;2.10;2.00;;;18.90;43.00;;;;;;5045836;28;20280;-58
2022/04/19 04:38:32;;;;;;;2.23;2.13;;;18.90;42.30;;;;;;5046628;28;20235;-57
2022/04/19 04:40:57;;;;;;;2.30;2.20;;;18.90;42.30;;;;;;5039024;28;20284;-57
2022/04/19 04:43:23;;;;;;;2.50;2.40;;;18.90;42.30;;;;;;5038000;28;20234;-58
2022/04/19 04:49:35;;;;;;;2.23;2.13;;;18.90;42.30;;;;;;5046172;28;20218;-58
2022/04/19 04:51:18;;;;;;;2.30;2.20;;;18.90;42.30;;;;;;5041211;28;20515;-58
2022/04/19 04:53:43;;;;;;;2.10;2.00;;;18.90;42.30;;;;;;5046966;28;20952;-58
2022/04/19 04:56:09;;;;;;;2.10;2.00;;;18.90;42.40;;;;;;5040754;28;20671;-57
2022/04/19 04:58:35;;;;;;;2.20;2.10;;;18.90;42.40;;;;;;5041810;28;20272;-59
2022/04/19 05:01:00;;;;;;;1.80;1.70;;;18.90;42.30;;;;;;5041928;28;20219;-59
2022/04/19 05:03:26;;;;;;;2.40;2.30;;;18.90;42.30;;;;;;5044480;28;20246;-58
2022/04/19 05:05:51;;;;;;;1.90;1.80;;;18.90;42.30;;;;;;5043413;28;20242;-58
2022/04/19 05:08:18;;;;;;;2.57;2.47;;;18.90;42.30;;;;;;5039489;28;20969;-59
2022/04/19 05:10:44;;;;;;;2.37;2.20;;;18.90;42.30;;;;;;5044638;28;20302;-58
2022/04/19 05:13:09;;;;;;;2.00;1.90;;;18.90;42.30;;;;;;5046073;28;20509;-59
2022/04/19 05:15:35;;;;;;;2.20;2.10;;;18.90;42.30;;;;;;5046665;28;20575;-58
2022/04/19 05:18:00;;;;;;;2.20;2.10;;;18.90;42.30;;;;;;5043224;28;20297;-58
2022/04/19 05:20:26;;;;;;;2.40;2.20;;;18.90;42.30;;;;;;5040885;28;20243;-58
2022/04/19 05:22:52;;;;;;;1.90;1.80;;;18.90;42.30;;;;;;5041535;28;20695;-58
2022/04/19 05:25:17;;;;;;;2.00;1.90;;;18.90;42.30;;;;;;5035467;28;20676;-58
2022/04/19 05:27:43;;;;;;;2.13;2.03;;;18.90;42.30;;;;;;5042267;28;20707;-59
2022/04/19 05:30:09;;;;;;;2.20;2.10;;;18.90;42.30;;;;;;5041865;28;20335;-59
2022/04/19 05:32:35;;;;;;;2.13;2.03;;;18.90;42.40;;;;;;5026107;28;20588;-59
2022/04/19 05:35:00;;;;;;;2.10;2.00;;;18.90;42.30;;;;;;5044100;28;20457;-59
2022/04/19 05:37:26;;;;;;;2.03;1.93;;;18.90;42.40;;;;;;5044909;28;20293;-59
2022/04/19 05:39:51;;;;;;;2.40;2.30;;;18.90;42.30;;;;;;5040133;28;20276;-59
2022/04/19 05:42:17;;;;;;;2.20;2.10;;;18.90;42.30;;;;;;5042678;28;20235;-59
2022/04/19 05:44:43;;;;;;;2.07;1.97;;;18.90;42.30;;;;;;5045504;28;20718;-59
2022/04/19 05:47:09;;;;;;;2.03;1.93;;;18.90;42.30;;;;;;5034676;28;20215;-58
2022/04/19 05:49:35;;;;;;;2.07;1.97;;;18.90;42.30;;;;;;5042528;28;20520;-59
2022/04/19 05:52:01;;;;;;;2.37;2.27;;;18.90;42.30;;;;;;5044090;28;20509;-59
2022/04/19 05:54:28;;;;;;;2.17;2.07;;;18.90;42.30;;;;;;5042084;28;20357;-59
2022/04/19 05:56:53;;;;;;;2.03;1.93;;;18.90;42.30;;;;;;5037843;28;20474;-59
2022/04/19 05:59:19;;;;;;;1.90;1.80;;;18.90;42.30;;;;;;5044720;28;20789;-59
2022/04/19 06:07:13;;;;;;;2.40;2.20;;;18.90;42.30;;;;;;5038906;28;20433;-59
2022/04/19 06:09:39;;;;;;;2.20;2.10;;;18.90;42.30;;;;;;5037748;28;20440;-59
2022/04/19 06:12:05;;;;;;;2.27;2.17;;;18.90;42.30;;;;;;5042593;28;20233;-58
2022/04/19 06:14:30;;;;;;;2.60;2.50;;;18.90;42.30;;;;;;5043380;28;20223;-58
2022/04/19 06:16:56;;;;;;;2.73;2.53;;;18.90;42.30;;;;;;5041000;28;20237;-57
2022/04/19 06:19:22;;;;;;;2.60;2.50;;;18.90;42.30;;;;;;5039795;28;20273;-58
2022/04/19 06:21:48;;;;;;;3.47;2.37;;;18.90;42.30;;;;;;5042993;28;20288;-58
2022/04/19 06:24:14;;;;;;;2.63;2.53;;;18.90;42.30;;;;;;5040270;28;20418;-57
2022/04/19 06:26:39;;;;;;;2.20;2.10;;;18.80;42.30;;;;;;5041200;28;20447;-57
2022/04/19 06:29:06;;;;;;;2.47;2.37;;;18.90;42.30;;;;;;5043694;28;20254;-57
2022/04/19 06:31:32;;;;;;;2.50;2.30;;;18.90;42.40;;;;;;5044101;28;20994;-57
2022/04/19 06:33:57;;;;;;;2.60;2.17;;;18.90;42.40;;;;;;5041876;28;20528;-57
2022/04/19 06:36:23;;;;;;;2.13;2.03;;;18.90;42.30;;;;;;5039681;28;20732;-57
2022/04/19 06:38:48;;;;;;;2.17;2.07;;;18.90;42.30;;;;;;5037510;28;20636;-57
2022/04/19 06:41:14;;;;;;;2.33;2.23;;;18.90;42.30;;;;;;5041674;28;20257;-57
2022/04/19 06:43:39;;;;;;;1.93;1.83;;;18.90;42.40;;;;;;5042223;28;20231;-57
2022/04/19 06:46:06;;;;;;;2.20;2.10;;;18.90;42.30;;;;;;5043576;28;20576;-57
2022/04/19 06:48:31;;;;;;;2.33;1.90;;;18.90;42.40;;;;;;5036201;28;20291;-57
2022/04/19 06:50:58;;;;;;;2.10;2.00;;;18.90;42.30;;;;;;5045427;28;20457;-57
2022/04/19 06:53:26;;;;;;;1.90;1.80;;;18.90;42.30;;;;;;5039815;28;20223;-57
2022/04/19 06:55:51;;;;;;;1.80;1.70;;;18.90;42.40;;;;;;5045073;28;20465;-57
2022/04/19 06:58:17;;;;;;;2.00;1.90;;;18.90;42.40;;;;;;5041844;28;20422;-57
2022/04/19 07:00:42;;;;;;;2.17;2.07;;;18.90;42.40;;;;;;5038254;28;20235;-57
2022/04/19 07:03:08;;;;;;;2.23;2.13;;;18.90;42.30;;;;;;5040325;28;20214;-57
2022/04/19 07:05:33;;;;;;;2.50;2.40;;;18.90;42.50;;;;;;5039045;28;20218;-57
2022/04/19 07:07:59;;;;;;;1.97;1.87;;;18.80;42.30;;;;;;5045641;28;20238;-57
2022/04/19 07:10:25;;;;;;;2.13;2.03;;;18.90;42.50;;;;;;5039354;28;20242;-57
2022/04/19 07:12:50;;;;;;;2.80;1.90;;;18.90;42.50;;;;;;5043665;28;20227;-57
2022/04/19 07:15:16;;;;;;;2.20;2.10;;;18.90;42.40;;;;;;5042880;28;20219;-58
2022/04/19 07:17:43;;;;;;;2.30;2.07;;;18.90;42.40;;;;;;5037170;28;20230;-57
2022/04/19 07:28:22;;;;;;;3.87;2.43;;;18.90;42.50;;;;;;5041780;28;21266;-57
2022/04/19 07:30:47;;;;;;;3.77;2.40;;;18.90;42.50;;;;;;5040367;28;20445;-57
2022/04/19 07:33:13;;;;;;;2.03;1.80;;;18.90;42.50;;;;;;5039747;28;20218;-57
2022/04/19 07:35:39;;;;;;;4.97;2.37;;;18.90;42.50;;;;;;5045988;28;20222;-56
2022/04/19 07:38:04;;;;;;;2.60;2.17;;;18.90;42.50;;;;;;5038143;28;20309;-57
2022/04/19 07:40:30;;;;;;;2.53;2.20;;;18.90;42.50;;;;;;5038734;28;20618;-57
2022/04/19 07:42:56;;;;;;;8.77;2.73;;;18.90;42.50;;;;;;5022071;28;20676;-57
2022/04/19 07:45:21;;;;;;;2.30;2.10;;;18.80;42.50;;;;;;5041437;28;20230;-56
2022/04/19 07:47:47;;;;;;;2.47;2.27;;;18.90;42.60;;;;;;5041411;28;20556;-57
2022/04/19 07:50:13;;;;;;;3.10;2.20;;;18.90;42.50;;;;;;5041725;28;20580;-57
2022/04/19 07:52:39;;;;;;;2.90;2.60;;;18.90;42.60;;;;;;5042137;28;20415;-57
2022/04/19 07:55:04;;;;;;;4.67;2.00;;;18.90;42.60;;;;;;5041209;28;20241;-57
2022/04/19 07:57:30;;;;;;;2.23;2.13;;;18.80;42.40;;;;;;5040295;28;20235;-57
2022/04/19 07:59:55;;;;;;;2.80;2.60;;;18.90;42.60;;;;;;5034465;28;20215;-57
2022/04/19 08:02:21;;;;;;;2.40;2.20;;;18.90;42.60;;;;;;5040331;28;20261;-57
2022/04/19 08:04:47;;;;;;;2.13;2.03;;;18.90;42.60;;;;;;5043882;28;20214;-58
2022/04/19 08:07:12;;;;;;;2.30;2.10;;;18.90;42.50;;;;;;5040791;28;20227;-58
2022/04/19 08:09:39;;;;;;;3.00;2.13;;;18.90;42.50;;;;;;5040185;28;20225;-58
2022/04/19 08:12:05;;;;;;;3.10;2.07;;;18.90;42.50;;;;;;5040285;28;20686;-58
2022/04/19 08:14:31;;;;;;;3.00;2.30;;;18.90;42.50;;;;;;5038861;28;20907;-58
2022/04/19 08:16:57;;;;;;;2.43;2.27;;;18.90;42.50;;;;;;5035364;28;20858;-58
2022/04/19 08:19:23;;;;;;;2.00;1.90;;;18.90;42.50;;;;;;5042251;28;20502;-57
2022/04/19 08:21:49;;;;;;;2.47;2.27;;;18.90;42.50;;;;;;5040838;28;20227;-57
2022/04/19 08:24:14;;;;;;;2.17;2.00;;;18.90;42.50;;;;;;5041102;28;20833;-59
2022/04/19 08:26:40;;;;;;;2.33;2.13;;;18.90;42.50;;;;;;5040137;28;20252;-57
2022/04/19 08:29:07;;;;;;;2.63;2.43;;;18.90;42.50;;;;;;5039806;28;20264;-58
2022/04/19 08:31:34;;;;;;;4.40;2.10;;;18.90;42.50;;;;;;5036735;28;20226;-58
2022/04/19 08:34:00;;;;;;;2.40;2.20;;;18.90;42.50;;;;;;5044408;28;20470;-58
2022/04/19 08:36:26;;;;;;;2.80;2.10;;;18.90;42.50;;;;;;5036991;28;20423;-58
2022/04/19 08:38:51;;;;;;;2.30;2.20;;;18.90;42.50;;;;;;5033177;28;20348;-58
2022/04/19 08:41:20;;;;;;;2.23;2.10;;;18.90;42.50;;;;;;5040764;28;20576;-58
2022/04/19 08:43:45;;;;;;;2.80;2.60;;;18.90;42.50;;;;;;5045400;28;20240;-57
2022/04/19 08:46:11;;;;;;;2.40;2.30;;;18.90;42.50;;;;;;5042593;28;20512;-58
2022/04/19 08:48:39;;;;;;;2.50;2.30;;;18.90;42.50;;;;;;5042290;28;20230;-58
2022/04/19 08:51:07;;;;;;;2.40;2.30;;;18.90;42.50;;;;;;5039440;28;20445;-58
2022/04/19 08:59:04;;;;;;;2.63;2.50;;;18.90;42.50;;;;;;5038341;28;20976;-58
2022/04/19 09:01:30;;;;;;;2.67;2.40;;;18.90;42.50;;;;;;5040519;28;20994;-58
2022/04/19 09:03:56;;;;;;;2.70;2.50;;;18.90;42.50;;;;;;5041875;28;20505;-58
2022/04/19 09:06:21;;;;;;;2.90;2.70;;;18.90;42.50;;;;;;5040615;28;20461;-58
2022/04/19 09:09:09;;;;;;;2.57;2.47;;;18.90;42.50;;;;;;5036246;28;20235;-58
2022/04/19 09:11:35;;;;;;;2.20;2.10;;;18.90;42.60;;;;;;5040648;28;20237;-58
2022/04/19 09:14:05;;;;;;;2.17;2.07;;;18.90;42.60;;;;;;5041983;28;20414;-58
2022/04/19 09:16:31;;;;;;;2.60;2.40;;;18.90;42.60;;;;;;5039234;28;20581;-58
2022/04/19 09:18:57;;;;;;;2.60;2.40;;;18.90;42.60;;;;;;5044030;28;20918;-58
2022/04/19 09:21:38;;;;;;;3.60;2.57;;;18.90;42.60;;;;;;5043781;28;20247;-58
2022/04/19 09:24:20;;;;;;;3.57;2.20;;;18.90;42.60;;;;;;5044395;28;20570;-59
2022/04/19 09:26:48;;;;;;;2.53;2.33;;;18.90;42.60;;;;;;5041479;28;20418;-59
2022/04/19 09:29:26;;;;;;;2.83;2.63;;;18.90;42.60;;;;;;5045756;28;20436;-58
2022/04/19 09:31:54;;;;;;;2.27;2.17;;;18.90;42.60;;;;;;5041148;28;20438;-58
2022/04/19 09:34:28;;;;;;;3.40;2.90;;;18.90;42.70;;;;;;5040894;28;20423;-58
2022/04/19 09:37:10;;;;;;;2.37;2.27;;;18.90;42.60;;;;;;5038245;28;20529;-58
2022/04/19 09:39:37;;;;;;;2.80;2.67;;;18.90;42.60;;;;;;5041276;28;20434;-58
2022/04/19 09:42:14;;;;;;;2.70;2.10;;;18.90;42.70;;;;;;5041826;28;20822;-58
2022/04/19 09:44:44;;;;;;;2.70;2.50;;;18.90;42.70;;;;;;5022339;28;20432;-58
2022/04/19 09:47:13;;;;;;;2.43;2.33;;;18.90;42.70;;;;;;5040178;28;20414;-58
2022/04/19 09:49:50;;;;;;;2.63;2.43;;;18.90;42.70;;;;;;5045697;28;20451;-58
2022/04/19 09:52:24;;;;;;;2.97;2.77;;;18.90;42.70;;;;;;5037244;28;20442;-59
2022/04/19 09:55:10;;;;;;;2.97;2.77;;;18.90;42.70;;;;;;5044280;28;20935;-58
2022/04/19 09:57:38;;;;;;;2.80;2.60;;;18.90;42.70;;;;;;5041401;28;20427;-58
2022/04/19 10:00:06;;;;;;;2.70;2.50;;;18.90;42.80;;;;;;5042996;28;20426;-58
2022/04/19 10:08:20;;;;;;;2.63;2.53;;;18.90;42.80;;;;;;5040667;28;20470;-58
2022/04/19 10:10:48;;;;;;;3.03;2.83;;;18.90;43.60;;;;;;5044659;28;20421;-59
2022/04/19 10:13:17;;;;;;;3.33;3.03;;;18.90;42.80;;;;;;5023089;28;20419;-58
2022/04/19 10:15:43;;;;;;;2.63;2.47;;;18.90;42.80;;;;;;5045292;28;20418;-58
2022/04/19 10:18:09;;;;;;;4.80;2.27;;;18.90;42.80;;;;;;5046108;28;20456;-58
2022/04/19 10:20:40;;;;;;;8.37;3.10;;;18.90;42.80;;;;;;5044890;28;20434;-58
2022/04/19 10:23:10;;;;;;;3.73;2.40;;;18.90;42.80;;;;;;5037021;28;20479;-58
2022/04/19 10:25:43;;;;;;;4.60;3.13;;;18.90;42.80;;;;;;5027934;28;20980;-58
2022/04/19 10:28:09;;;;;;;5.93;2.83;;;18.90;42.80;;;;;;5027780;28;20823;-58
2022/04/19 10:30:37;;;;;;;5.87;3.40;;;18.90;42.80;;;;;;5040644;28;20429;-58
2022/04/19 10:33:41;;;;;;;5.83;3.10;;;18.80;42.70;;;;;;5046111;28;20468;-58
2022/04/19 10:36:15;;;;;;;3.43;3.20;;;18.90;42.80;;;;;;5040876;28;20520;-58
2022/04/19 10:38:42;;;;;;;3.20;2.90;;;18.90;42.80;;;;;;5037444;28;20557;-58
2022/04/19 10:41:08;;;;;;;5.50;3.20;;;18.90;42.90;;;;;;5047510;28;21026;-58
2022/04/19 10:43:34;;;;;;;6.47;3.30;;;18.80;42.80;;;;;;5023365;28;20467;-58
2022/04/19 10:46:19;;;;;;;4.07;3.60;;;18.80;42.80;;;;;;5038476;28;20250;-58
2022/04/19 10:49:25;;;;;;;8.13;4.20;;;18.80;42.70;;;;;;5040254;28;20218;-58
2022/04/19 10:52:01;;;;;;;8.80;4.20;;;18.90;42.90;;;;;;5036496;28;20869;-58
2022/04/19 10:55:04;;;;;;;7.77;3.20;;;18.80;42.80;;;;;;5044031;28;20505;-58
2022/04/19 10:58:09;;;;;;;12.17;3.30;;;18.80;42.80;;;;;;5042208;28;21442;-58
2022/04/19 11:00:34;;;;;;;5.70;3.60;;;18.80;42.80;;;;;;5038189;28;20471;-58
2022/04/19 11:03:05;;;;;;;4.37;3.97;;;18.80;42.80;;;;;;5044090;28;20441;-58
2022/04/19 11:05:47;;;;;;;9.43;2.90;;;18.80;42.70;;;;;;5043366;28;20258;-59
2022/04/19 11:08:25;;;;;;;11.13;4.17;;;18.80;42.70;;;;;;5036811;28;20844;-59
2022/04/19 11:11:20;;;;;;;16.37;4.10;;;18.90;42.80;;;;;;5045444;28;20522;-59
2022/04/19 11:14:19;;;;;;;7.90;3.50;;;18.90;42.80;;;;;;5026798;28;20509;-60
2022/04/19 11:16:50;;;;;;;3.40;3.03;;;18.90;42.80;;;;;;5042693;28;20422;-59
2022/04/19 11:19:25;;;;;;;13.70;4.03;;;18.90;42.90;;;;;;5038640;28;20985;-59
2022/04/19 11:21:52;;;;;;;11.07;4.10;;;18.90;42.80;;;;;;5042966;28;20449;-59
2022/04/19 11:24:56;;;;;;;5.10;3.80;;;18.90;42.80;;;;;;5036600;28;20492;-59
2022/04/19 11:27:22;;;;;;;7.47;3.67;;;18.90;43.60;;;;;;5037672;28;20459;-59
2022/04/19 11:29:49;;;;;;;4.50;3.87;;;18.90;42.90;;;;;;5041047;28;20443;-59
2022/04/19 11:32:22;;;;;;;8.50;4.03;;;18.90;42.90;;;;;;5040367;28;20264;-58
2022/04/19 11:35:01;;;;;;;4.73;4.30;;;18.90;42.90;;;;;;5041410;28;20460;-59
2022/04/19 11:37:31;;;;;;;7.37;4.50;;;18.90;42.90;;;;;;5038563;28;20430;-59
2022/04/19 11:48:37;;;;;;;3.30;3.10;;;19.00;42.90;;;;;;5040892;28;20489;-58
2022/04/19 11:51:10;;;;;;;3.53;2.87;;;19.00;42.80;;;;;;5042056;28;20920;-59
2022/04/19 11:53:36;;;;;;;5.50;3.93;;;19.00;42.90;;;;;;5042181;28;20449;-58
2022/04/19 11:56:03;;;;;;;6.57;3.33;;;19.00;42.80;;;;;;5041355;28;20461;-57
2022/04/19 11:58:29;;;;;;;3.40;3.10;;;19.00;42.90;;;;;;5040197;28;20426;-58
2022/04/19 12:01:06;;;;;;;3.30;3.10;;;19.00;42.90;;;;;;5042112;28;20438;-58
2022/04/19 12:03:36;;;;;;;4.63;3.83;;;19.00;42.90;;;;;;5037165;28;20832;-58
2022/04/19 12:06:16;;;;;;;3.83;3.23;;;18.90;42.90;;;;;;5041430;28;20501;-58
2022/04/19 12:08:49;;;;;;;2.97;2.77;;;19.00;43.00;;;;;;5037973;28;21185;-57
2022/04/19 12:11:27;;;;;;;4.60;2.70;;;19.00;42.90;;;;;;5043508;28;20793;-59
2022/04/19 12:13:53;;;;;;;3.47;3.27;;;19.00;42.90;;;;;;5044067;28;20487;-58
2022/04/19 12:16:34;;;;;;;3.20;3.00;;;19.00;43.00;;;;;;5039044;28;20484;-58
2022/04/19 12:19:02;;;;;;;3.13;2.93;;;19.00;43.00;;;;;;5044070;28;20805;-58
2022/04/19 12:21:40;;;;;;;2.90;2.70;;;18.90;42.90;;;;;;5036362;28;20441;-58
2022/04/19 12:24:28;;;;;;;3.33;3.00;;;18.90;42.90;;;;;;5042048;28;20462;-58
2022/04/19 12:27:03;;;;;;;3.00;2.77;;;18.90;43.00;;;;;;5041361;28;20430;-58
2022/04/19 12:29:29;;;;;;;3.20;2.97;;;18.90;43.00;;;;;;5036783;28;20456;-58
2022/04/19 12:32:02;;;;;;;3.53;3.20;;;18.90;43.00;;;;;;5022285;28;20520;-58
2022/04/19 12:34:38;;;;;;;2.63;2.50;;;18.90;43.00;;;;;;5044707;28;20230;-58
2022/04/19 12:37:09;;;;;;;3.63;3.33;;;18.90;43.00;;;;;;5041357;28;20421;-58
2022/04/19 12:39:35;;;;;;;6.20;2.60;;;18.90;43.00;;;;;;5041926;28;20957;-58
2022/04/19 12:42:09;;;;;;;3.10;2.90;;;18.90;43.00;;;;;;5038232;28;20472;-58
2022/04/19 12:44:35;;;;;;;2.77;2.57;;;18.90;43.00;;;;;;5034416;28;20434;-58
2022/04/19 12:47:09;;;;;;;4.40;2.87;;;18.90;43.00;;;;;;5042819;28;20458;-58
2022/04/19 12:49:45;;;;;;;2.70;2.50;;;18.90;43.00;;;;;;5042140;28;20435;-58
2022/04/19 12:52:12;;;;;;;3.57;3.27;;;18.90;43.00;;;;;;5042691;28;21030;-58
2022/04/19 12:54:40;;;;;;;3.30;3.00;;;18.90;43.00;;;;;;5044310;28;20493;-58
2022/04/19 12:57:17;;;;;;;3.00;2.80;;;18.90;43.00;;;;;;5041399;28;20913;-58
2022/04/19 12:59:43;;;;;;;3.20;3.00;;;18.90;43.00;;;;;;5042501;28;20825;-58
2022/04/19 13:02:10;;;;;;;3.33;2.83;;;18.90;43.00;;;;;;5046669;28;20460;-58
2022/04/19 13:04:36;;;;;;;3.50;3.30;;;18.90;43.00;;;;;;5043756;28;20451;-58
2022/04/19 13:12:31;;;;;;;3.00;2.80;;;18.90;43.00;;;;;;5047959;28;20476;-58
2022/04/19 13:14:58;;;;;;;3.67;3.10;;;18.90;43.00;;;;;;5029367;28;20434;-58
2022/04/19 13:17:26;;;;;;;3.27;3.07;;;18.90;43.10;;;;;;5045095;28;20452;-58
2022/04/19 13:19:51;;;;;;;3.13;2.80;;;18.90;43.00;;;;;;5043963;28;20444;-58
2022/04/19 13:22:17;;;;;;;2.93;2.73;;;18.90;43.00;;;;;;5035690;28;20451;-59
2022/04/19 13:24:43;;;;;;;3.43;3.13;;;18.90;43.10;;;;;;5044067;28;20226;-58
2022/04/19 13:27:11;;;;;;;3.20;3.00;;;18.90;43.00;;;;;;5045607;28;20438;-58
2022/04/19 13:29:38;;;;;;;3.30;3.10;;;18.90;43.00;;;;;;5035407;28;20506;-58
2022/04/19 13:32:04;;;;;;;3.30;3.10;;;18.90;43.00;;;;;;5044736;28;20805;-58
2022/04/19 13:34:30;;;;;;;2.90;2.70;;;18.90;43.00;;;;;;5044002;28;20451;-58
2022/04/19 13:36:59;;;;;;;3.40;3.20;;;18.90;43.00;;;;;;5042054;28;20503;-58
2022/04/19 13:39:26;;;;;;;2.97;2.77;;;18.90;43.00;;;;;;5041055;28;20250;-58
2022/04/19 13:41:52;;;;;;;3.20;3.00;;;18.90;43.00;;;;;;5040397;28;20460;-58